sensor_id;sensor_type;location;lat;lon;timestamp;P1;durP1;ratioP1;P2;durP2;ratioP2
8353;SDS011;4656;48.090;11.498;2023-03-05T00:01:12;32.60;;;19.27;;
8353;SDS011;4656;48.090;11.498;2023-03-05T00:03:15;31.02;;;18.63;;
8353;SDS011;4656;48.090;11.498;2023-03-05T00:05:17;31.45;;;18.50;;
8353;SDS011;4656;48.090;11.498;2023-03-05T00:07:19;31.48;;;17.85;;
8353;SDS011;4656;48.090;11.498;2023-03-05T00:09:21;33.33;;;18.47;;
8353;SDS011;4656;48.090;11.498;2023-03-05T00:11:24;31.20;;;17.70;;
8353;SDS011;4656;48.090;11.498;2023-03-05T00:13:28;30.65;;;18.75;;
8353;SDS011;4656;48.090;11.498;2023-03-05T00:15:30;30.27;;;18.27;;
8353;SDS011;4656;48.090;11.498;2023-03-05T00:17:34;30.13;;;18.15;;
8353;SDS011;4656;48.090;11.498;2023-03-05T00:19:36;28.58;;;17.85;;
8353;SDS011;4656;48.090;11.498;2023-03-05T00:21:39;33.95;;;18.73;;
8353;SDS011;4656;48.090;11.498;2023-03-05T00:23:41;35.42;;;20.02;;
8353;SDS011;4656;48.090;11.498;2023-03-05T00:25:43;33.33;;;18.40;;
8353;SDS011;4656;48.090;11.498;2023-03-05T00:27:46;30.13;;;17.67;;
8353;SDS011;4656;48.090;11.498;2023-03-05T00:29:48;36.50;;;19.98;;
8353;SDS011;4656;48.090;11.498;2023-03-05T00:31:50;31.02;;;18.13;;
8353;SDS011;4656;48.090;11.498;2023-03-05T00:33:54;32.22;;;18.20;;
8353;SDS011;4656;48.090;11.498;2023-03-05T00:35:58;30.92;;;17.90;;
8353;SDS011;4656;48.090;11.498;2023-03-05T00:38:01;30.52;;;18.05;;
8353;SDS011;4656;48.090;11.498;2023-03-05T00:40:03;31.88;;;17.83;;
8353;SDS011;4656;48.090;11.498;2023-03-05T00:42:06;33.58;;;19.15;;
8353;SDS011;4656;48.090;11.498;2023-03-05T00:44:08;31.25;;;17.92;;
8353;SDS011;4656;48.090;11.498;2023-03-05T00:46:10;31.08;;;18.50;;
8353;SDS011;4656;48.090;11.498;2023-03-05T00:48:13;34.35;;;18.52;;
8353;SDS011;4656;48.090;11.498;2023-03-05T00:50:16;32.97;;;18.48;;
8353;SDS011;4656;48.090;11.498;2023-03-05T00:52:19;32.00;;;19.27;;
8353;SDS011;4656;48.090;11.498;2023-03-05T00:54:21;33.47;;;18.85;;
8353;SDS011;4656;48.090;11.498;2023-03-05T00:56:23;33.00;;;18.85;;
8353;SDS011;4656;48.090;11.498;2023-03-05T00:58:25;34.60;;;19.45;;
8353;SDS011;4656;48.090;11.498;2023-03-05T01:00:28;34.75;;;18.13;;
8353;SDS011;4656;48.090;11.498;2023-03-05T01:02:30;32.10;;;18.13;;
8353;SDS011;4656;48.090;11.498;2023-03-05T01:04:33;32.67;;;19.08;;
8353;SDS011;4656;48.090;11.498;2023-03-05T01:06:36;33.35;;;19.25;;
8353;SDS011;4656;48.090;11.498;2023-03-05T01:08:42;29.50;;;18.38;;
8353;SDS011;4656;48.090;11.498;2023-03-05T01:10:44;32.63;;;17.92;;
8353;SDS011;4656;48.090;11.498;2023-03-05T01:12:46;32.47;;;17.65;;
8353;SDS011;4656;48.090;11.498;2023-03-05T01:14:48;31.33;;;18.67;;
8353;SDS011;4656;48.090;11.498;2023-03-05T01:16:50;32.63;;;19.13;;
8353;SDS011;4656;48.090;11.498;2023-03-05T01:18:53;31.65;;;18.13;;
8353;SDS011;4656;48.090;11.498;2023-03-05T01:20:55;30.07;;;17.97;;
8353;SDS011;4656;48.090;11.498;2023-03-05T01:22:58;31.75;;;18.13;;
8353;SDS011;4656;48.090;11.498;2023-03-05T01:25:00;34.80;;;19.20;;
8353;SDS011;4656;48.090;11.498;2023-03-05T01:27:03;31.95;;;18.65;;
8353;SDS011;4656;48.090;11.498;2023-03-05T01:29:06;31.80;;;17.48;;
8353;SDS011;4656;48.090;11.498;2023-03-05T01:31:08;30.33;;;18.25;;
8353;SDS011;4656;48.090;11.498;2023-03-05T01:33:11;34.63;;;18.85;;
8353;SDS011;4656;48.090;11.498;2023-03-05T01:35:15;34.63;;;18.43;;
8353;SDS011;4656;48.090;11.498;2023-03-05T01:37:17;30.45;;;17.88;;
8353;SDS011;4656;48.090;11.498;2023-03-05T01:39:20;35.07;;;18.57;;
8353;SDS011;4656;48.090;11.498;2023-03-05T01:41:22;31.48;;;18.38;;
8353;SDS011;4656;48.090;11.498;2023-03-05T01:43:27;30.33;;;17.48;;
8353;SDS011;4656;48.090;11.498;2023-03-05T01:45:30;31.63;;;18.58;;
8353;SDS011;4656;48.090;11.498;2023-03-05T01:47:32;30.25;;;18.05;;
8353;SDS011;4656;48.090;11.498;2023-03-05T01:49:34;30.90;;;18.25;;
8353;SDS011;4656;48.090;11.498;2023-03-05T01:51:39;29.90;;;17.20;;
8353;SDS011;4656;48.090;11.498;2023-03-05T01:53:42;32.23;;;18.03;;
8353;SDS011;4656;48.090;11.498;2023-03-05T01:55:46;30.60;;;17.05;;
8353;SDS011;4656;48.090;11.498;2023-03-05T01:57:49;29.10;;;17.65;;
8353;SDS011;4656;48.090;11.498;2023-03-05T01:59:53;32.05;;;18.60;;
8353;SDS011;4656;48.090;11.498;2023-03-05T02:01:56;32.05;;;17.27;;
8353;SDS011;4656;48.090;11.498;2023-03-05T02:03:59;30.90;;;17.30;;
8353;SDS011;4656;48.090;11.498;2023-03-05T02:06:01;31.42;;;17.63;;
8353;SDS011;4656;48.090;11.498;2023-03-05T02:08:05;31.80;;;17.52;;
8353;SDS011;4656;48.090;11.498;2023-03-05T02:10:14;29.30;;;17.63;;
8353;SDS011;4656;48.090;11.498;2023-03-05T02:12:18;30.33;;;16.83;;
8353;SDS011;4656;48.090;11.498;2023-03-05T02:14:20;29.08;;;16.92;;
8353;SDS011;4656;48.090;11.498;2023-03-05T02:16:23;30.80;;;16.55;;
8353;SDS011;4656;48.090;11.498;2023-03-05T02:18:26;31.38;;;16.55;;
8353;SDS011;4656;48.090;11.498;2023-03-05T02:20:29;31.20;;;17.25;;
8353;SDS011;4656;48.090;11.498;2023-03-05T02:22:33;30.95;;;17.08;;
8353;SDS011;4656;48.090;11.498;2023-03-05T02:24:35;27.33;;;16.90;;
8353;SDS011;4656;48.090;11.498;2023-03-05T02:26:37;27.85;;;16.95;;
8353;SDS011;4656;48.090;11.498;2023-03-05T02:28:41;29.90;;;17.67;;
8353;SDS011;4656;48.090;11.498;2023-03-05T02:30:44;28.97;;;17.33;;
8353;SDS011;4656;48.090;11.498;2023-03-05T02:32:46;30.38;;;17.08;;
8353;SDS011;4656;48.090;11.498;2023-03-05T02:34:48;29.15;;;16.83;;
8353;SDS011;4656;48.090;11.498;2023-03-05T02:36:50;30.55;;;17.17;;
8353;SDS011;4656;48.090;11.498;2023-03-05T02:38:55;27.65;;;16.83;;
8353;SDS011;4656;48.090;11.498;2023-03-05T02:40:58;28.48;;;15.88;;
8353;SDS011;4656;48.090;11.498;2023-03-05T02:43:00;28.15;;;16.95;;
8353;SDS011;4656;48.090;11.498;2023-03-05T02:45:03;31.33;;;17.02;;
8353;SDS011;4656;48.090;11.498;2023-03-05T02:47:05;32.35;;;17.50;;
8353;SDS011;4656;48.090;11.498;2023-03-05T02:49:07;29.98;;;16.83;;
8353;SDS011;4656;48.090;11.498;2023-03-05T02:51:10;32.47;;;17.30;;
8353;SDS011;4656;48.090;11.498;2023-03-05T02:53:12;34.58;;;18.00;;
8353;SDS011;4656;48.090;11.498;2023-03-05T02:55:15;32.40;;;18.15;;
8353;SDS011;4656;48.090;11.498;2023-03-05T02:57:18;30.98;;;17.58;;
8353;SDS011;4656;48.090;11.498;2023-03-05T02:59:20;32.25;;;17.20;;
8353;SDS011;4656;48.090;11.498;2023-03-05T03:01:22;30.45;;;16.73;;
8353;SDS011;4656;48.090;11.498;2023-03-05T03:03:27;30.23;;;17.83;;
8353;SDS011;4656;48.090;11.498;2023-03-05T03:05:29;33.72;;;18.05;;
8353;SDS011;4656;48.090;11.498;2023-03-05T03:07:31;32.85;;;17.65;;
8353;SDS011;4656;48.090;11.498;2023-03-05T03:09:35;32.45;;;17.38;;
8353;SDS011;4656;48.090;11.498;2023-03-05T03:11:38;31.75;;;17.63;;
8353;SDS011;4656;48.090;11.498;2023-03-05T03:13:40;28.58;;;17.58;;
8353;SDS011;4656;48.090;11.498;2023-03-05T03:15:43;31.05;;;17.10;;
8353;SDS011;4656;48.090;11.498;2023-03-05T03:17:45;33.03;;;18.08;;
8353;SDS011;4656;48.090;11.498;2023-03-05T03:19:47;31.40;;;17.20;;
8353;SDS011;4656;48.090;11.498;2023-03-05T03:21:49;34.90;;;18.42;;
8353;SDS011;4656;48.090;11.498;2023-03-05T03:23:54;33.45;;;17.73;;
8353;SDS011;4656;48.090;11.498;2023-03-05T03:25:56;31.30;;;18.15;;
8353;SDS011;4656;48.090;11.498;2023-03-05T03:28:00;32.30;;;18.30;;
8353;SDS011;4656;48.090;11.498;2023-03-05T03:30:02;31.90;;;17.58;;
8353;SDS011;4656;48.090;11.498;2023-03-05T03:32:05;28.90;;;17.27;;
8353;SDS011;4656;48.090;11.498;2023-03-05T03:34:08;33.00;;;18.50;;
8353;SDS011;4656;48.090;11.498;2023-03-05T03:36:10;33.60;;;18.58;;
8353;SDS011;4656;48.090;11.498;2023-03-05T03:38:12;34.15;;;18.42;;
8353;SDS011;4656;48.090;11.498;2023-03-05T03:40:15;32.45;;;18.27;;
8353;SDS011;4656;48.090;11.498;2023-03-05T03:42:17;33.63;;;18.73;;
8353;SDS011;4656;48.090;11.498;2023-03-05T03:44:21;32.45;;;18.40;;
8353;SDS011;4656;48.090;11.498;2023-03-05T03:46:23;32.00;;;18.55;;
8353;SDS011;4656;48.090;11.498;2023-03-05T03:48:25;35.45;;;19.33;;
8353;SDS011;4656;48.090;11.498;2023-03-05T03:50:27;33.92;;;18.60;;
8353;SDS011;4656;48.090;11.498;2023-03-05T03:52:29;35.42;;;19.48;;
8353;SDS011;4656;48.090;11.498;2023-03-05T03:54:31;33.28;;;17.67;;
8353;SDS011;4656;48.090;11.498;2023-03-05T03:56:34;35.92;;;19.05;;
8353;SDS011;4656;48.090;11.498;2023-03-05T03:58:36;33.17;;;18.93;;
8353;SDS011;4656;48.090;11.498;2023-03-05T04:00:40;33.95;;;19.10;;
8353;SDS011;4656;48.090;11.498;2023-03-05T04:02:42;35.75;;;18.25;;
8353;SDS011;4656;48.090;11.498;2023-03-05T04:04:45;33.50;;;18.80;;
8353;SDS011;4656;48.090;11.498;2023-03-05T04:06:47;32.63;;;18.67;;
8353;SDS011;4656;48.090;11.498;2023-03-05T04:08:49;35.58;;;19.83;;
8353;SDS011;4656;48.090;11.498;2023-03-05T04:10:51;34.75;;;18.25;;
8353;SDS011;4656;48.090;11.498;2023-03-05T04:12:53;36.67;;;19.30;;
8353;SDS011;4656;48.090;11.498;2023-03-05T04:14:55;33.08;;;18.80;;
8353;SDS011;4656;48.090;11.498;2023-03-05T04:16:59;32.38;;;18.70;;
8353;SDS011;4656;48.090;11.498;2023-03-05T04:19:01;33.50;;;18.52;;
8353;SDS011;4656;48.090;11.498;2023-03-05T04:21:03;31.98;;;18.30;;
8353;SDS011;4656;48.090;11.498;2023-03-05T04:23:06;33.35;;;18.48;;
8353;SDS011;4656;48.090;11.498;2023-03-05T04:25:08;33.88;;;19.73;;
8353;SDS011;4656;48.090;11.498;2023-03-05T04:27:11;35.25;;;18.65;;
8353;SDS011;4656;48.090;11.498;2023-03-05T04:29:13;34.13;;;19.25;;
8353;SDS011;4656;48.090;11.498;2023-03-05T04:31:15;35.08;;;18.35;;
8353;SDS011;4656;48.090;11.498;2023-03-05T04:33:20;34.53;;;18.75;;
8353;SDS011;4656;48.090;11.498;2023-03-05T04:35:23;33.17;;;18.75;;
8353;SDS011;4656;48.090;11.498;2023-03-05T04:37:25;34.88;;;18.80;;
8353;SDS011;4656;48.090;11.498;2023-03-05T04:39:27;35.27;;;19.53;;
8353;SDS011;4656;48.090;11.498;2023-03-05T04:41:30;33.93;;;18.87;;
8353;SDS011;4656;48.090;11.498;2023-03-05T04:43:32;32.53;;;18.55;;
8353;SDS011;4656;48.090;11.498;2023-03-05T04:45:34;32.17;;;18.20;;
8353;SDS011;4656;48.090;11.498;2023-03-05T04:47:36;35.80;;;18.48;;
8353;SDS011;4656;48.090;11.498;2023-03-05T04:49:40;34.47;;;19.38;;
8353;SDS011;4656;48.090;11.498;2023-03-05T04:51:44;36.42;;;19.95;;
8353;SDS011;4656;48.090;11.498;2023-03-05T04:53:46;35.40;;;19.98;;
8353;SDS011;4656;48.090;11.498;2023-03-05T04:55:51;35.60;;;19.87;;
8353;SDS011;4656;48.090;11.498;2023-03-05T04:57:53;35.25;;;19.52;;
8353;SDS011;4656;48.090;11.498;2023-03-05T04:59:55;36.75;;;19.98;;
8353;SDS011;4656;48.090;11.498;2023-03-05T05:01:57;35.15;;;19.50;;
8353;SDS011;4656;48.090;11.498;2023-03-05T05:03:59;35.55;;;19.25;;
8353;SDS011;4656;48.090;11.498;2023-03-05T05:06:03;36.30;;;18.48;;
8353;SDS011;4656;48.090;11.498;2023-03-05T05:08:05;36.42;;;19.98;;
8353;SDS011;4656;48.090;11.498;2023-03-05T05:10:08;35.10;;;19.52;;
8353;SDS011;4656;48.090;11.498;2023-03-05T05:12:10;36.60;;;20.17;;
8353;SDS011;4656;48.090;11.498;2023-03-05T05:14:13;35.60;;;19.95;;
8353;SDS011;4656;48.090;11.498;2023-03-05T05:16:15;34.97;;;20.27;;
8353;SDS011;4656;48.090;11.498;2023-03-05T05:18:17;35.55;;;19.52;;
8353;SDS011;4656;48.090;11.498;2023-03-05T05:20:19;33.53;;;19.83;;
8353;SDS011;4656;48.090;11.498;2023-03-05T05:22:23;35.58;;;19.25;;
8353;SDS011;4656;48.090;11.498;2023-03-05T05:24:25;37.30;;;18.88;;
8353;SDS011;4656;48.090;11.498;2023-03-05T05:26:28;35.85;;;19.15;;
8353;SDS011;4656;48.090;11.498;2023-03-05T05:28:30;37.70;;;19.60;;
8353;SDS011;4656;48.090;11.498;2023-03-05T05:30:32;34.67;;;19.30;;
8353;SDS011;4656;48.090;11.498;2023-03-05T05:32:34;39.00;;;19.70;;
8353;SDS011;4656;48.090;11.498;2023-03-05T05:34:36;37.85;;;19.90;;
8353;SDS011;4656;48.090;11.498;2023-03-05T05:36:38;36.88;;;19.38;;
8353;SDS011;4656;48.090;11.498;2023-03-05T05:38:42;35.00;;;18.67;;
8353;SDS011;4656;48.090;11.498;2023-03-05T05:40:44;34.75;;;18.85;;
8353;SDS011;4656;48.090;11.498;2023-03-05T05:42:46;33.28;;;18.67;;
8353;SDS011;4656;48.090;11.498;2023-03-05T05:44:49;35.67;;;19.73;;
8353;SDS011;4656;48.090;11.498;2023-03-05T05:46:51;34.63;;;18.67;;
8353;SDS011;4656;48.090;11.498;2023-03-05T05:48:53;33.28;;;18.45;;
8353;SDS011;4656;48.090;11.498;2023-03-05T05:50:55;34.80;;;19.55;;
8353;SDS011;4656;48.090;11.498;2023-03-05T05:52:58;36.55;;;18.23;;
8353;SDS011;4656;48.090;11.498;2023-03-05T05:55:01;32.63;;;18.70;;
8353;SDS011;4656;48.090;11.498;2023-03-05T05:57:04;35.30;;;19.00;;
8353;SDS011;4656;48.090;11.498;2023-03-05T05:59:06;34.63;;;19.02;;
8353;SDS011;4656;48.090;11.498;2023-03-05T06:01:12;33.30;;;17.98;;
8353;SDS011;4656;48.090;11.498;2023-03-05T06:03:14;31.77;;;18.08;;
8353;SDS011;4656;48.090;11.498;2023-03-05T06:05:16;35.72;;;18.35;;
8353;SDS011;4656;48.090;11.498;2023-03-05T06:07:18;32.30;;;18.13;;
8353;SDS011;4656;48.090;11.498;2023-03-05T06:09:21;33.85;;;17.90;;
8353;SDS011;4656;48.090;11.498;2023-03-05T06:11:24;34.15;;;17.65;;
8353;SDS011;4656;48.090;11.498;2023-03-05T06:13:26;34.25;;;18.58;;
8353;SDS011;4656;48.090;11.498;2023-03-05T06:15:29;33.83;;;18.42;;
8353;SDS011;4656;48.090;11.498;2023-03-05T06:17:31;32.60;;;17.73;;
8353;SDS011;4656;48.090;11.498;2023-03-05T06:19:33;39.05;;;18.35;;
8353;SDS011;4656;48.090;11.498;2023-03-05T06:21:35;32.83;;;17.42;;
8353;SDS011;4656;48.090;11.498;2023-03-05T06:23:38;34.72;;;18.08;;
8353;SDS011;4656;48.090;11.498;2023-03-05T06:25:40;31.88;;;17.73;;
8353;SDS011;4656;48.090;11.498;2023-03-05T06:27:43;32.42;;;17.67;;
8353;SDS011;4656;48.090;11.498;2023-03-05T06:29:46;33.15;;;17.00;;
8353;SDS011;4656;48.090;11.498;2023-03-05T06:31:48;34.17;;;17.27;;
8353;SDS011;4656;48.090;11.498;2023-03-05T06:33:50;32.22;;;17.55;;
8353;SDS011;4656;48.090;11.498;2023-03-05T06:35:52;33.42;;;18.02;;
8353;SDS011;4656;48.090;11.498;2023-03-05T06:37:55;30.90;;;17.58;;
8353;SDS011;4656;48.090;11.498;2023-03-05T06:39:57;31.67;;;17.33;;
8353;SDS011;4656;48.090;11.498;2023-03-05T06:41:59;29.90;;;17.30;;
8353;SDS011;4656;48.090;11.498;2023-03-05T06:44:03;31.67;;;17.33;;
8353;SDS011;4656;48.090;11.498;2023-03-05T06:46:06;32.63;;;18.17;;
8353;SDS011;4656;48.090;11.498;2023-03-05T06:48:08;33.97;;;17.87;;
8353;SDS011;4656;48.090;11.498;2023-03-05T06:50:12;32.80;;;17.02;;
8353;SDS011;4656;48.090;11.498;2023-03-05T06:52:14;28.10;;;15.73;;
8353;SDS011;4656;48.090;11.498;2023-03-05T06:54:16;30.75;;;16.80;;
8353;SDS011;4656;48.090;11.498;2023-03-05T06:56:18;27.42;;;16.88;;
8353;SDS011;4656;48.090;11.498;2023-03-05T06:58:21;34.55;;;16.80;;
8353;SDS011;4656;48.090;11.498;2023-03-05T07:00:25;28.95;;;16.13;;
8353;SDS011;4656;48.090;11.498;2023-03-05T07:02:29;30.77;;;16.73;;
8353;SDS011;4656;48.090;11.498;2023-03-05T07:04:32;30.17;;;16.58;;
8353;SDS011;4656;48.090;11.498;2023-03-05T07:06:35;31.08;;;16.98;;
8353;SDS011;4656;48.090;11.498;2023-03-05T07:08:38;31.40;;;16.25;;
8353;SDS011;4656;48.090;11.498;2023-03-05T07:10:41;28.98;;;15.77;;
8353;SDS011;4656;48.090;11.498;2023-03-05T07:12:43;27.92;;;15.38;;
8353;SDS011;4656;48.090;11.498;2023-03-05T07:14:45;29.27;;;15.63;;
8353;SDS011;4656;48.090;11.498;2023-03-05T07:16:49;26.23;;;15.32;;
8353;SDS011;4656;48.090;11.498;2023-03-05T07:18:51;28.00;;;14.95;;
8353;SDS011;4656;48.090;11.498;2023-03-05T07:20:54;28.42;;;16.17;;
8353;SDS011;4656;48.090;11.498;2023-03-05T07:22:56;26.70;;;14.73;;
8353;SDS011;4656;48.090;11.498;2023-03-05T07:24:58;26.75;;;15.50;;
8353;SDS011;4656;48.090;11.498;2023-03-05T07:27:00;27.77;;;15.13;;
8353;SDS011;4656;48.090;11.498;2023-03-05T07:29:03;23.70;;;13.98;;
8353;SDS011;4656;48.090;11.498;2023-03-05T07:31:05;26.52;;;16.00;;
8353;SDS011;4656;48.090;11.498;2023-03-05T07:33:09;27.08;;;15.40;;
8353;SDS011;4656;48.090;11.498;2023-03-05T07:35:12;30.73;;;16.90;;
8353;SDS011;4656;48.090;11.498;2023-03-05T07:37:14;26.30;;;14.88;;
8353;SDS011;4656;48.090;11.498;2023-03-05T07:39:16;30.42;;;15.45;;
8353;SDS011;4656;48.090;11.498;2023-03-05T07:41:19;25.23;;;15.23;;
8353;SDS011;4656;48.090;11.498;2023-03-05T07:43:22;26.33;;;14.40;;
8353;SDS011;4656;48.090;11.498;2023-03-05T07:45:24;31.30;;;14.93;;
8353;SDS011;4656;48.090;11.498;2023-03-05T07:47:26;25.75;;;14.75;;
8353;SDS011;4656;48.090;11.498;2023-03-05T07:49:31;22.25;;;13.40;;
8353;SDS011;4656;48.090;11.498;2023-03-05T07:51:34;25.58;;;14.50;;
8353;SDS011;4656;48.090;11.498;2023-03-05T07:53:36;23.58;;;13.95;;
8353;SDS011;4656;48.090;11.498;2023-03-05T07:55:41;23.73;;;13.27;;
8353;SDS011;4656;48.090;11.498;2023-03-05T07:57:44;23.27;;;14.18;;
8353;SDS011;4656;48.090;11.498;2023-03-05T07:59:46;23.48;;;13.70;;
8353;SDS011;4656;48.090;11.498;2023-03-05T08:01:48;25.83;;;14.60;;
8353;SDS011;4656;48.090;11.498;2023-03-05T08:03:50;25.33;;;14.50;;
8353;SDS011;4656;48.090;11.498;2023-03-05T08:05:54;27.23;;;14.48;;
8353;SDS011;4656;48.090;11.498;2023-03-05T08:07:56;25.45;;;14.07;;
8353;SDS011;4656;48.090;11.498;2023-03-05T08:09:58;24.73;;;13.82;;
8353;SDS011;4656;48.090;11.498;2023-03-05T08:12:01;26.40;;;14.20;;
8353;SDS011;4656;48.090;11.498;2023-03-05T08:14:03;24.85;;;14.35;;
8353;SDS011;4656;48.090;11.498;2023-03-05T08:16:05;26.77;;;14.27;;
8353;SDS011;4656;48.090;11.498;2023-03-05T08:18:08;27.27;;;14.65;;
8353;SDS011;4656;48.090;11.498;2023-03-05T08:20:10;24.50;;;14.82;;
8353;SDS011;4656;48.090;11.498;2023-03-05T08:22:14;26.35;;;14.38;;
8353;SDS011;4656;48.090;11.498;2023-03-05T08:24:19;26.75;;;14.93;;
8353;SDS011;4656;48.090;11.498;2023-03-05T08:26:23;27.77;;;15.15;;
8353;SDS011;4656;48.090;11.498;2023-03-05T08:28:25;23.73;;;13.65;;
8353;SDS011;4656;48.090;11.498;2023-03-05T08:30:27;24.48;;;14.57;;
8353;SDS011;4656;48.090;11.498;2023-03-05T08:32:29;27.80;;;13.95;;
8353;SDS011;4656;48.090;11.498;2023-03-05T08:34:32;26.05;;;14.40;;
8353;SDS011;4656;48.090;11.498;2023-03-05T08:36:34;23.93;;;13.70;;
8353;SDS011;4656;48.090;11.498;2023-03-05T08:38:37;27.63;;;14.10;;
8353;SDS011;4656;48.090;11.498;2023-03-05T08:40:39;23.17;;;13.95;;
8353;SDS011;4656;48.090;11.498;2023-03-05T08:42:42;26.73;;;14.75;;
8353;SDS011;4656;48.090;11.498;2023-03-05T08:44:44;26.27;;;14.18;;
8353;SDS011;4656;48.090;11.498;2023-03-05T08:46:46;25.70;;;14.23;;
8353;SDS011;4656;48.090;11.498;2023-03-05T08:48:48;25.20;;;13.48;;
8353;SDS011;4656;48.090;11.498;2023-03-05T08:50:51;24.73;;;13.82;;
8353;SDS011;4656;48.090;11.498;2023-03-05T08:52:53;21.77;;;13.40;;
8353;SDS011;4656;48.090;11.498;2023-03-05T08:54:57;25.27;;;14.05;;
8353;SDS011;4656;48.090;11.498;2023-03-05T08:56:59;25.90;;;14.23;;
8353;SDS011;4656;48.090;11.498;2023-03-05T08:59:02;28.45;;;14.70;;
8353;SDS011;4656;48.090;11.498;2023-03-05T09:01:04;24.98;;;14.63;;
8353;SDS011;4656;48.090;11.498;2023-03-05T09:03:06;23.77;;;13.63;;
8353;SDS011;4656;48.090;11.498;2023-03-05T09:05:09;23.63;;;13.63;;
8353;SDS011;4656;48.090;11.498;2023-03-05T09:07:11;22.70;;;13.32;;
8353;SDS011;4656;48.090;11.498;2023-03-05T09:09:13;24.23;;;13.68;;
8353;SDS011;4656;48.090;11.498;2023-03-05T09:11:17;23.45;;;14.05;;
8353;SDS011;4656;48.090;11.498;2023-03-05T09:13:19;24.27;;;14.73;;
8353;SDS011;4656;48.090;11.498;2023-03-05T09:15:21;25.98;;;14.05;;
8353;SDS011;4656;48.090;11.498;2023-03-05T09:17:23;23.13;;;13.88;;
8353;SDS011;4656;48.090;11.498;2023-03-05T09:19:25;25.05;;;14.38;;
8353;SDS011;4656;48.090;11.498;2023-03-05T09:21:28;23.70;;;13.20;;
8353;SDS011;4656;48.090;11.498;2023-03-05T09:23:30;24.33;;;14.02;;
8353;SDS011;4656;48.090;11.498;2023-03-05T09:25:32;22.67;;;13.70;;
8353;SDS011;4656;48.090;11.498;2023-03-05T09:27:36;22.92;;;13.55;;
8353;SDS011;4656;48.090;11.498;2023-03-05T09:29:38;22.90;;;14.10;;
8353;SDS011;4656;48.090;11.498;2023-03-05T09:31:40;24.38;;;14.63;;
8353;SDS011;4656;48.090;11.498;2023-03-05T09:33:43;21.45;;;14.15;;
8353;SDS011;4656;48.090;11.498;2023-03-05T09:35:45;24.30;;;13.77;;
8353;SDS011;4656;48.090;11.498;2023-03-05T09:37:47;26.75;;;14.75;;
8353;SDS011;4656;48.090;11.498;2023-03-05T09:39:51;25.17;;;13.20;;
8353;SDS011;4656;48.090;11.498;2023-03-05T09:42:01;21.52;;;13.73;;
8353;SDS011;4656;48.090;11.498;2023-03-05T09:44:09;24.13;;;14.07;;
8353;SDS011;4656;48.090;11.498;2023-03-05T09:46:15;22.67;;;13.18;;
8353;SDS011;4656;48.090;11.498;2023-03-05T09:48:19;26.23;;;14.13;;
8353;SDS011;4656;48.090;11.498;2023-03-05T09:50:27;23.10;;;13.57;;
8353;SDS011;4656;48.090;11.498;2023-03-05T09:52:33;27.75;;;14.38;;
8353;SDS011;4656;48.090;11.498;2023-03-05T09:54:37;24.87;;;13.93;;
8353;SDS011;4656;48.090;11.498;2023-03-05T09:56:40;24.58;;;14.40;;
8353;SDS011;4656;48.090;11.498;2023-03-05T09:58:44;20.85;;;13.65;;
8353;SDS011;4656;48.090;11.498;2023-03-05T10:00:48;27.35;;;13.82;;
8353;SDS011;4656;48.090;11.498;2023-03-05T10:02:52;24.65;;;13.43;;
8353;SDS011;4656;48.090;11.498;2023-03-05T10:04:59;23.80;;;13.82;;
8353;SDS011;4656;48.090;11.498;2023-03-05T10:07:04;25.42;;;13.25;;
8353;SDS011;4656;48.090;11.498;2023-03-05T10:09:11;22.37;;;13.27;;
8353;SDS011;4656;48.090;11.498;2023-03-05T10:11:18;23.60;;;13.82;;
8353;SDS011;4656;48.090;11.498;2023-03-05T10:13:23;24.05;;;13.75;;
8353;SDS011;4656;48.090;11.498;2023-03-05T10:15:30;23.63;;;13.48;;
8353;SDS011;4656;48.090;11.498;2023-03-05T10:17:52;26.80;;;14.25;;
8353;SDS011;4656;48.090;11.498;2023-03-05T10:20:06;27.10;;;14.68;;
8353;SDS011;4656;48.090;11.498;2023-03-05T10:22:17;25.08;;;14.32;;
8353;SDS011;4656;48.090;11.498;2023-03-05T10:24:21;27.77;;;15.70;;
8353;SDS011;4656;48.090;11.498;2023-03-05T10:26:29;27.33;;;15.32;;
8353;SDS011;4656;48.090;11.498;2023-03-05T10:28:40;25.27;;;14.10;;
8353;SDS011;4656;48.090;11.498;2023-03-05T10:30:51;24.67;;;14.52;;
8353;SDS011;4656;48.090;11.498;2023-03-05T10:32:57;24.35;;;14.20;;
8353;SDS011;4656;48.090;11.498;2023-03-05T10:35:10;26.67;;;15.57;;
8353;SDS011;4656;48.090;11.498;2023-03-05T10:37:22;25.60;;;14.15;;
8353;SDS011;4656;48.090;11.498;2023-03-05T10:39:32;25.83;;;15.40;;
8353;SDS011;4656;48.090;11.498;2023-03-05T10:41:38;24.30;;;14.70;;
8353;SDS011;4656;48.090;11.498;2023-03-05T10:43:43;24.35;;;14.38;;
8353;SDS011;4656;48.090;11.498;2023-03-05T10:45:47;24.05;;;14.05;;
8353;SDS011;4656;48.090;11.498;2023-03-05T10:47:51;25.35;;;15.57;;
8353;SDS011;4656;48.090;11.498;2023-03-05T10:49:57;28.88;;;15.60;;
8353;SDS011;4656;48.090;11.498;2023-03-05T10:52:01;25.90;;;14.77;;
8353;SDS011;4656;48.090;11.498;2023-03-05T10:54:08;25.77;;;14.82;;
8353;SDS011;4656;48.090;11.498;2023-03-05T10:56:12;25.30;;;14.18;;
8353;SDS011;4656;48.090;11.498;2023-03-05T10:58:15;25.60;;;14.38;;
8353;SDS011;4656;48.090;11.498;2023-03-05T11:00:18;25.13;;;15.18;;
8353;SDS011;4656;48.090;11.498;2023-03-05T11:02:20;42.38;;;21.48;;
8353;SDS011;4656;48.090;11.498;2023-03-05T11:04:26;29.30;;;17.48;;
8353;SDS011;4656;48.090;11.498;2023-03-05T11:06:31;21.05;;;12.70;;
8353;SDS011;4656;48.090;11.498;2023-03-05T11:08:34;25.17;;;13.43;;
8353;SDS011;4656;48.090;11.498;2023-03-05T11:10:36;25.85;;;14.40;;
8353;SDS011;4656;48.090;11.498;2023-03-05T11:12:38;22.38;;;13.55;;
8353;SDS011;4656;48.090;11.498;2023-03-05T11:14:41;20.92;;;12.55;;
8353;SDS011;4656;48.090;11.498;2023-03-05T11:16:45;23.73;;;13.23;;
8353;SDS011;4656;48.090;11.498;2023-03-05T11:18:47;21.80;;;13.50;;
8353;SDS011;4656;48.090;11.498;2023-03-05T11:20:50;26.15;;;14.35;;
8353;SDS011;4656;48.090;11.498;2023-03-05T11:23:03;21.88;;;13.52;;
8353;SDS011;4656;48.090;11.498;2023-03-05T11:25:15;21.27;;;13.77;;
8353;SDS011;4656;48.090;11.498;2023-03-05T11:27:22;20.23;;;12.80;;
8353;SDS011;4656;48.090;11.498;2023-03-05T11:29:25;22.67;;;13.40;;
8353;SDS011;4656;48.090;11.498;2023-03-05T11:31:28;23.90;;;13.90;;
8353;SDS011;4656;48.090;11.498;2023-03-05T11:33:31;21.40;;;13.73;;
8353;SDS011;4656;48.090;11.498;2023-03-05T11:35:35;21.75;;;13.35;;
8353;SDS011;4656;48.090;11.498;2023-03-05T11:37:37;24.73;;;15.15;;
8353;SDS011;4656;48.090;11.498;2023-03-05T11:39:41;22.63;;;13.13;;
8353;SDS011;4656;48.090;11.498;2023-03-05T11:41:46;22.65;;;12.90;;
8353;SDS011;4656;48.090;11.498;2023-03-05T11:43:49;19.02;;;12.63;;
8353;SDS011;4656;48.090;11.498;2023-03-05T11:46:03;23.20;;;14.65;;
8353;SDS011;4656;48.090;11.498;2023-03-05T11:48:07;24.00;;;14.40;;
8353;SDS011;4656;48.090;11.498;2023-03-05T11:50:11;21.20;;;13.65;;
8353;SDS011;4656;48.090;11.498;2023-03-05T11:52:19;25.13;;;13.60;;
8353;SDS011;4656;48.090;11.498;2023-03-05T11:54:23;21.33;;;13.65;;
8353;SDS011;4656;48.090;11.498;2023-03-05T11:56:29;23.30;;;14.23;;
8353;SDS011;4656;48.090;11.498;2023-03-05T11:58:33;22.90;;;13.55;;
8353;SDS011;4656;48.090;11.498;2023-03-05T12:00:37;19.50;;;12.63;;
8353;SDS011;4656;48.090;11.498;2023-03-05T12:02:42;18.67;;;12.35;;
8353;SDS011;4656;48.090;11.498;2023-03-05T12:04:44;20.40;;;12.80;;
8353;SDS011;4656;48.090;11.498;2023-03-05T12:06:47;20.30;;;13.27;;
8353;SDS011;4656;48.090;11.498;2023-03-05T12:08:50;19.50;;;12.60;;
8353;SDS011;4656;48.090;11.498;2023-03-05T12:10:53;20.92;;;12.65;;